• Join FlightAware (Why Join?)
  • Login
  • US Flag 
11:17AM EDT


 

Airport Tracker/Info


-or-


 

Live Flight TrackerFlight Track Log ✈ ASQ6115 ✈ 07-Jun-2013 ✈ KIAH - KMFE

Flight Track Log - Related Links

Times and Time Zones

All times are in EDT time to prevent confusion due to time zone crossing. See the ASQ6115 flight status page for this flight to view local times or setup timezone preferences in your user account.

Time Position Orientation Groundspeed Altitude Reporting Facility
EDT Latitude Longitude Course Direction KTS MPH feet Rate Location/Type
02:24PM 29.9617 -95.3436 190° South 165 190 800  Level Houston Center
02:25PM 29.9450 -95.3214 131° Southeast 180 207 1,700 1,920 Climbing Houston Center
02:26PM 29.9039 -95.2639 130° Southeast 254 292 3,600 1,860 Climbing Houston Center
02:27PM 29.8581 -95.1994 129° Southeast 274 315 5,600 2,160 Climbing Houston Center
02:28PM 29.6101 -95.4070 191° South  Level FlightAware Approximate
02:28PM 29.7869 -95.1575 153° Southeast 295 339 8,100  Level Houston Center
02:29PM 29.5170 -95.4266 190° South  Level FlightAware Approximate
02:29PM 29.7053 -95.1819 195° South 290 334 10,400  Level Houston Center
02:30PM 29.4237 -95.4453 190° South  Level FlightAware Approximate
02:30PM 29.6183 -95.2192 200° South 347 399 11,100  Level Houston Center
02:31PM 29.5219 -95.2622 201° Southwest 360 414 12,500 1,380 Climbing Houston Center
02:32PM 29.4097 -95.3108 201° Southwest 361 415 14,300 1,560 Climbing Houston Center
02:33PM 29.3269 -95.3756 214° Southwest 359 413 15,800 1,800 Climbing Houston Center
02:34PM 29.2519 -95.4464 219° Southwest 351 404 18,100 2,040 Climbing Houston Center
02:35PM 29.1794 -95.5142 219° Southwest 340 391 20,100 1,920 Climbing Houston Center
02:36PM 29.1069 -95.5831 220° Southwest 338 389 22,100 1,740 Climbing Houston Center
02:37PM 29.0347 -95.6500 219° Southwest 335 386 23,700 1,320 Climbing Houston Center
02:38PM 28.9419 -95.7369 219° Southwest 359 413 24,900 1,020 Climbing Houston Center
02:39PM 28.8594 -95.8144 219° Southwest 381 438 25,900 960 Climbing Houston Center
02:40PM 28.7750 -95.8931 219° Southwest 392 451 26,900 960 Climbing Houston Center
02:41PM 28.6917 -95.9714 220° Southwest 397 457 27,900 900 Climbing Houston Center
02:42PM 28.6056 -96.0522 220° Southwest 399 459 28,800 960 Climbing Houston Center
02:43PM 28.4997 -96.1489 219° Southwest 403 464 30,000 1,020 Climbing Houston Center
02:44PM 28.4100 -96.2317 219° Southwest 411 473 31,000 960 Climbing Houston Center
02:45PM 28.3206 -96.3150 219° Southwest 414 476 32,000 960 Climbing Houston Center
02:47PM 28.2292 -96.3975 219° Southwest 417 480 33,000 1,080 Climbing Houston Center
02:48PM 28.1386 -96.4814 219° Southwest 418 481 34,300 1,260 Climbing Houston Center
02:49PM 28.0506 -96.5606 218° Southwest 410 472 35,700 780 Climbing Houston Center
02:50PM 27.9442 -96.6561 218° Southwest 406 467 36,000 120 Climbing Houston Center
02:51PM 27.8181 -96.6767 188° South 454 522 36,000 -240 Level Houston Center
02:52PM 27.6919 -96.6519 170° South 460 529 35,600 -1,080 Descending Houston Center
02:53PM 27.5692 -96.6306 171° South 450 518 33,800 -1,800 Descending Houston Center
02:54PM 27.4492 -96.6356 182° South 442 509 32,000 -1,740 Descending Houston Center
02:55PM 27.3308 -96.6614 191° South 435 501 30,200 -1,680 Descending Houston Center
02:56PM 27.1969 -96.7139 199° South 441 507 28,600 -1,500 Descending Houston Center
02:57PM 27.0847 -96.7611 201° Southwest 450 518 27,100 -1,740 Descending Houston Center
02:58PM 26.9536 -96.7806 188° South 472 543 25,100 -1,980 Descending Houston Center
02:59PM 26.8369 -96.8250 199° South 459 528 23,100 -1,860 Descending Houston Center
03:00PM 26.7686 -96.9072 227° Southwest 406 467 21,900 -1,560 Descending Houston Center
03:00PM 26.7456 -96.9367 229° Southwest 413 475 21,500 -1,260 Descending Houston Center
03:01PM 26.6786 -97.0231 229° Southwest 400 460 20,400 -1,380 Descending Houston Center
03:02PM 26.6103 -97.1264 234° Southwest 412 474 18,900 -1,680 Descending Houston Center
03:03PM 26.5547 -97.2325 240° Southwest 390 449 17,100 -1,620 Descending Houston Center
03:04PM 26.5092 -97.3347 244° Southwest 369 425 15,700 -1,260 Descending Houston Center
03:05PM 26.4686 -97.4431 247° West 375 432 14,600 -1,200 Descending Houston Center
03:05PM 26.4600 -97.4772 254° West 378 435 14,200 -1,140 Descending Houston Center
03:06PM 26.4419 -97.5636 257° West 377 434 13,500 -1,080 Descending Houston Center
03:06PM 26.4381 -97.5906 261° West 375 432 13,100 -1,020 Descending Houston Center
03:07PM 26.4150 -97.6842 255° West 371 427 12,400 -1,020 Descending Houston Center
03:08PM 26.3925 -97.7689 254° West 300 345 11,400 -1,440 Descending Houston Center
03:08PM 26.3853 -97.7936 252° West 297 342 10,700 -1,800 Descending Houston Center
03:09PM 26.3700 -97.8514 254° West 272 313 9,600 -1,980 Descending Houston Center
03:09PM 26.3625 -97.8822 255° West 279 321 8,700 -2,100 Descending Houston Center
03:10PM 26.3481 -97.9431 255° West 267 307 7,300 -1,920 Descending Houston Center
03:10PM 26.3428 -97.9600 251° West 264 304 6,700 -2,220 Descending Houston Center
03:11PM 26.3286 -98.0156 254° West 244 281 5,100 -2,280 Descending Houston Center
03:11PM 26.3233 -98.0383 256° West 247 284 4,400 -1,260 Descending Houston Center
03:12PM 26.3058 -98.1003 253° West 247 284 3,700 -840 Descending Houston Center